createdAt,value
2019-04-20T00:00:53.207Z,0
2019-04-20T00:01:52.580Z,0
2019-04-20T00:02:55.510Z,0
2019-04-20T00:03:55.627Z,0
2019-04-20T00:04:57.024Z,0
2019-04-20T00:05:57.364Z,0
2019-04-20T00:06:59.180Z,0
2019-04-20T00:08:01.161Z,0
2019-04-20T00:09:07.328Z,0
2019-04-20T00:10:08.727Z,0
2019-04-20T00:11:10.595Z,0
2019-04-20T00:12:15.080Z,0
2019-04-20T00:13:19.668Z,0
2019-04-20T00:14:13.523Z,0
2019-04-20T00:15:09.175Z,0
2019-04-20T00:16:10.528Z,0
2019-04-20T00:17:11.890Z,0
2019-04-20T00:18:13.499Z,0
2019-04-20T00:19:21.739Z,0
2019-04-20T00:20:20.686Z,0
2019-04-20T00:21:18.039Z,0
2019-04-20T00:22:20.033Z,0
2019-04-20T00:23:26.900Z,0
2019-04-20T00:24:25.663Z,0
2019-04-20T00:25:24.124Z,0
2019-04-20T00:26:51.126Z,0
2019-04-20T00:27:43.126Z,0
2019-04-20T00:28:45.761Z,0
2019-04-20T00:29:45.422Z,0
2019-04-20T00:30:51.802Z,0
2019-04-20T00:31:47.781Z,0
2019-04-20T00:32:46.610Z,0
2019-04-20T00:33:47.929Z,0
2019-04-20T00:34:38.887Z,0
2019-04-20T00:35:35.909Z,0
2019-04-20T00:36:37.048Z,0
2019-04-20T00:37:38.397Z,0
2019-04-20T00:38:45.691Z,0
2019-04-20T00:39:41.079Z,0
2019-04-20T00:40:43.338Z,0
2019-04-20T00:41:48.977Z,0
2019-04-20T00:42:48.884Z,0
2019-04-20T00:43:47.174Z,0
2019-04-20T00:44:56.383Z,0
2019-04-20T00:45:53.712Z,0
2019-04-20T00:47:01.938Z,0
2019-04-20T00:47:59.780Z,0
2019-04-20T00:49:00.824Z,0
2019-04-20T00:50:05.553Z,0
2019-04-20T00:51:15.405Z,0
2019-04-20T00:52:24.266Z,0
2019-04-20T00:53:06.825Z,0
2019-04-20T00:54:00.889Z,0
2019-04-20T00:55:02.385Z,0
2019-04-20T00:56:03.317Z,0
2019-04-20T00:57:13.461Z,0
2019-04-20T00:58:15.309Z,0
2019-04-20T00:59:17.180Z,0
2019-04-20T01:00:25.844Z,0
2019-04-20T01:01:31.065Z,0
2019-04-20T01:02:25.811Z,0
2019-04-20T01:03:27.708Z,0
2019-04-20T01:04:29.842Z,0
2019-04-20T01:05:28.219Z,0
2019-04-20T01:06:35.776Z,0
2019-04-20T01:07:28.923Z,0
2019-04-20T01:08:19.034Z,0
2019-04-20T01:09:20.319Z,0
2019-04-20T01:10:21.634Z,0
2019-04-20T01:11:27.043Z,0
2019-04-20T01:12:26.776Z,0
2019-04-20T01:13:26.678Z,0
2019-04-20T01:14:31.089Z,0
2019-04-20T01:15:38.739Z,0
2019-04-20T01:16:38.895Z,0
2019-04-20T01:17:30.180Z,0
2019-04-20T01:18:31.537Z,0
2019-04-20T01:19:32.899Z,0
2019-04-20T01:20:34.257Z,0
2019-04-20T01:21:36.724Z,0
2019-04-20T01:22:44.585Z,0
2019-04-20T01:23:46.135Z,0
2019-04-20T01:24:43.334Z,0
2019-04-20T01:25:43.692Z,0
2019-04-20T01:26:48.298Z,0
2019-04-20T01:28:06.608Z,0
2019-04-20T01:28:58.501Z,0
2019-04-20T01:29:50.945Z,0
2019-04-20T01:31:02.008Z,0
2019-04-20T01:32:18.737Z,0
2019-04-20T01:33:57.767Z,0
2019-04-20T01:34:55.285Z,0
2019-04-20T01:36:03.547Z,0
2019-04-20T01:37:06.978Z,0
2019-04-20T01:38:12.463Z,0
2019-04-20T01:39:02.779Z,0
2019-04-20T01:39:58.679Z,0
2019-04-20T01:40:57.153Z,0
2019-04-20T01:41:58.197Z,0
2019-04-20T01:42:59.535Z,0
2019-04-20T01:44:00.495Z,0
2019-04-20T01:45:05.545Z,0
2019-04-20T01:46:09.331Z,0
2019-04-20T01:47:06.565Z,0
2019-04-20T01:48:06.909Z,0
2019-04-20T01:49:11.476Z,0
2019-04-20T01:50:15.355Z,0
2019-04-20T01:51:17.347Z,0
2019-04-20T01:52:18.898Z,0
2019-04-20T01:53:23.479Z,0
2019-04-20T01:54:29.816Z,0
2019-04-20T01:55:34.638Z,0
2019-04-20T01:56:31.149Z,0
2019-04-20T01:57:23.815Z,0
2019-04-20T01:58:52.419Z,0
2019-04-20T01:59:33.448Z,0
2019-04-20T02:00:28.427Z,0
2019-04-20T02:01:28.044Z,0
2019-04-20T02:02:26.236Z,0
2019-04-20T02:03:31.167Z,0
2019-04-20T02:04:32.417Z,0
2019-04-20T02:05:32.744Z,0
2019-04-20T02:06:30.951Z,0
2019-04-20T02:07:37.354Z,0
2019-04-20T02:08:33.913Z,0
2019-04-20T02:09:37.924Z,0
2019-04-20T02:10:44.383Z,0
2019-04-20T02:11:40.158Z,0
2019-04-20T02:12:40.724Z,0
2019-04-20T02:13:45.625Z,0
2019-04-20T02:14:46.294Z,0
2019-04-20T02:15:48.035Z,0
2019-04-20T02:16:47.623Z,0
2019-04-20T02:17:59.799Z,0
2019-04-20T02:19:08.043Z,0
2019-04-20T02:20:05.383Z,0
2019-04-20T02:21:05.903Z,0
2019-04-20T02:22:04.094Z,0
2019-04-20T02:23:06.762Z,0
2019-04-20T02:23:58.883Z,0
2019-04-20T02:24:55.037Z,0
2019-04-20T02:25:56.593Z,0
2019-04-20T02:26:57.900Z,0
2019-04-20T02:28:16.690Z,0
2019-04-20T02:29:29.133Z,0
2019-04-20T02:30:32.505Z,0
2019-04-20T02:31:42.298Z,0
2019-04-20T02:32:40.799Z,0
2019-04-20T02:33:42.809Z,0
2019-04-20T02:34:40.175Z,0
2019-04-20T02:35:50.403Z,0
2019-04-20T02:36:53.278Z,0
2019-04-20T02:39:05.731Z,0
2019-04-20T02:39:47.214Z,0
2019-04-20T02:40:52.594Z,0
2019-04-20T02:41:51.023Z,0
2019-04-20T02:42:50.745Z,0
2019-04-20T02:44:06.102Z,0
2019-04-20T02:45:00.702Z,0
2019-04-20T02:45:52.859Z,0
2019-04-20T02:47:11.652Z,0
2019-04-20T02:48:06.559Z,0
2019-04-20T02:49:04.605Z,0
2019-04-20T02:49:57.983Z,0
2019-04-20T02:50:59.210Z,0
2019-04-20T02:55:09.397Z,0
2019-04-20T02:56:17.406Z,0
2019-04-20T02:57:10.674Z,0
2019-04-20T02:58:10.983Z,0
2019-04-20T02:59:45.307Z,0
2019-04-20T03:00:12.449Z,0
2019-04-20T03:01:06.347Z,0
2019-04-20T03:01:59.095Z,0
2019-04-20T03:02:57.238Z,0
2019-04-20T03:03:51.134Z,0
2019-04-20T03:04:59.061Z,0
2019-04-20T03:06:04.634Z,0
2019-04-20T03:07:04.199Z,0
2019-04-20T03:08:08.947Z,0
2019-04-20T03:09:15.505Z,0
2019-04-20T03:10:11.242Z,0
2019-04-20T03:11:22.208Z,0
2019-04-20T03:12:23.884Z,0
2019-04-20T03:13:19.803Z,0
2019-04-20T03:14:17.439Z,0
2019-04-20T03:15:22.490Z,0
2019-04-20T03:16:20.856Z,0
2019-04-20T03:17:27.246Z,0
2019-04-20T03:18:26.537Z,0
2019-04-20T03:19:22.298Z,0
2019-04-20T03:20:32.276Z,0
2019-04-20T03:21:33.210Z,0
2019-04-20T03:22:39.547Z,0
2019-04-20T03:23:35.681Z,0
2019-04-20T03:24:37.399Z,0
2019-04-20T03:25:35.808Z,0
2019-04-20T03:26:34.068Z,0
2019-04-20T03:27:33.055Z,0
2019-04-20T03:28:37.306Z,0
2019-04-20T03:29:41.841Z,0
2019-04-20T03:32:03.821Z,0
2019-04-20T03:33:12.658Z,0
2019-04-20T03:34:05.740Z,0
2019-04-20T03:35:58.688Z,0
2019-04-20T03:36:53.514Z,0
2019-04-20T03:37:52.465Z,0
2019-04-20T03:38:50.790Z,0
2019-04-20T03:39:48.840Z,0
2019-04-20T03:40:46.471Z,0
2019-04-20T03:41:43.056Z,0
2019-04-20T03:42:37.255Z,0
2019-04-20T03:43:38.970Z,0
2019-04-20T03:44:48.307Z,0
2019-04-20T03:45:47.560Z,0
2019-04-20T03:46:51.599Z,0
2019-04-20T03:47:57.368Z,0
2019-04-20T03:49:01.344Z,0
2019-04-20T03:50:06.318Z,0
2019-04-20T03:51:08.928Z,0
2019-04-20T03:52:09.622Z,0
2019-04-20T03:53:13.022Z,0
2019-04-20T03:54:08.652Z,0
2019-04-20T03:55:15.070Z,0
2019-04-20T03:56:20.847Z,0
2019-04-20T03:57:20.969Z,0
2019-04-20T03:58:17.133Z,0
2019-04-20T03:59:13.871Z,0
2019-04-20T04:00:17.552Z,0
2019-04-20T04:01:27.269Z,0
2019-04-20T04:02:29.863Z,0
2019-04-20T04:03:31.770Z,0
2019-04-20T04:04:27.189Z,0
2019-04-20T04:05:23.901Z,0
2019-04-20T04:06:21.469Z,0
2019-04-20T04:07:21.888Z,0
2019-04-20T04:08:17.091Z,0
2019-04-20T04:09:23.654Z,0
2019-04-20T04:10:25.908Z,0
2019-04-20T04:11:34.263Z,0
2019-04-20T04:12:22.600Z,0
2019-04-20T04:13:17.080Z,0
2019-04-20T04:14:18.202Z,0
2019-04-20T04:15:20.872Z,5
2019-04-20T04:16:22.145Z,5
2019-04-20T04:17:28.822Z,5
2019-04-20T04:18:29.892Z,5
2019-04-20T04:19:30.053Z,5
2019-04-20T04:20:33.237Z,5
2019-04-20T04:21:42.283Z,11
2019-04-20T04:22:43.353Z,11
2019-04-20T04:23:44.438Z,11
2019-04-20T04:24:40.568Z,11
2019-04-20T04:25:52.077Z,16
2019-04-20T04:26:47.536Z,16
2019-04-20T04:27:55.094Z,16
2019-04-20T04:28:53.440Z,16
2019-04-20T04:29:56.922Z,22
2019-04-20T04:30:59.973Z,22
2019-04-20T04:32:06.390Z,22
2019-04-20T04:33:27.013Z,28
2019-04-20T04:34:02.626Z,28
2019-04-20T04:35:02.568Z,28
2019-04-20T04:36:01.028Z,33
2019-04-20T04:37:05.426Z,33
2019-04-20T04:38:06.973Z,39
2019-04-20T04:39:19.636Z,39
2019-04-20T04:40:23.533Z,39
2019-04-20T04:42:20.705Z,45
2019-04-20T04:43:18.724Z,50
2019-04-20T04:44:10.964Z,50
2019-04-20T04:45:03.926Z,50
2019-04-20T04:45:59.665Z,56
2019-04-20T04:47:05.221Z,56
2019-04-20T04:48:05.712Z,61
2019-04-20T04:49:11.739Z,61
2019-04-20T04:50:11.621Z,67
2019-04-20T04:51:13.759Z,67
2019-04-20T04:52:12.407Z,67
2019-04-20T04:53:20.582Z,73
2019-04-20T04:54:16.547Z,73
2019-04-20T04:55:23.766Z,78
2019-04-20T04:56:17.089Z,78
2019-04-20T04:57:14.157Z,84
2019-04-20T04:58:15.515Z,84
2019-04-20T04:59:17.154Z,84
2019-04-20T05:00:22.689Z,90
2019-04-20T05:01:24.863Z,90
2019-04-20T05:02:22.514Z,95
2019-04-20T05:03:42.761Z,95
2019-04-20T05:04:55.171Z,101
2019-04-20T05:05:47.261Z,101
2019-04-20T05:06:37.467Z,101
2019-04-20T05:07:38.897Z,106
2019-04-20T05:08:34.468Z,106
2019-04-20T05:09:30.282Z,112
2019-04-20T05:10:32.884Z,112
2019-04-20T05:11:34.987Z,112
2019-04-20T05:12:35.923Z,118
2019-04-20T05:13:41.898Z,118
2019-04-20T05:14:48.317Z,123
2019-04-20T05:15:53.925Z,123
2019-04-20T05:16:54.548Z,123
2019-04-20T05:18:01.576Z,129
2019-04-20T05:19:05.021Z,129
2019-04-20T05:20:06.127Z,135
2019-04-20T05:21:04.320Z,135
2019-04-20T05:22:09.516Z,135
2019-04-20T05:23:07.619Z,140
2019-04-20T05:24:07.531Z,140
2019-04-20T05:25:11.938Z,140
2019-04-20T05:26:14.164Z,146
2019-04-20T05:27:15.991Z,146
2019-04-20T05:28:09.622Z,151
2019-04-20T05:29:04.567Z,151
2019-04-20T05:29:57.119Z,151
2019-04-20T05:31:02.618Z,157
2019-04-20T05:32:05.977Z,157
2019-04-20T05:33:07.539Z,157
2019-04-20T05:34:25.638Z,163
2019-04-20T05:35:27.080Z,163
2019-04-20T05:36:23.212Z,163
2019-04-20T05:37:34.267Z,168
2019-04-20T05:38:37.022Z,168
2019-04-20T05:39:32.706Z,168
2019-04-20T05:40:33.490Z,174
2019-04-20T05:41:27.129Z,174
2019-04-20T05:42:38.013Z,174
2019-04-20T05:43:33.132Z,180
2019-04-20T05:44:39.721Z,180
2019-04-20T05:45:28.406Z,180
2019-04-20T05:46:36.822Z,185
2019-04-20T05:47:38.544Z,185
2019-04-20T05:48:48.781Z,185
2019-04-20T05:49:40.203Z,191
2019-04-20T05:50:42.239Z,191
2019-04-20T05:51:43.347Z,191
2019-04-20T05:52:56.428Z,196
2019-04-20T05:53:45.419Z,196
2019-04-20T05:54:51.321Z,196
2019-04-20T05:55:48.869Z,202
2019-04-20T05:56:52.370Z,202
2019-04-20T05:57:56.565Z,202
2019-04-20T05:58:56.824Z,208
2019-04-20T06:00:03.529Z,208
2019-04-20T06:01:01.494Z,208
2019-04-20T06:02:03.441Z,208
2019-04-20T06:03:00.470Z,213
2019-04-20T06:03:57.897Z,213
2019-04-20T06:05:04.367Z,213
2019-04-20T06:06:08.070Z,219
2019-04-20T06:07:09.307Z,219
2019-04-20T06:08:05.451Z,219
2019-04-20T06:09:10.893Z,225
2019-04-20T06:10:16.195Z,225
2019-04-20T06:11:13.384Z,225
2019-04-20T06:13:11.177Z,230
2019-04-20T06:14:03.785Z,230
2019-04-20T06:15:07.997Z,230
2019-04-20T06:16:12.897Z,236
2019-04-20T06:17:21.190Z,236
2019-04-20T06:18:16.327Z,241
2019-04-20T06:19:20.141Z,241
2019-04-20T06:20:28.401Z,241
2019-04-20T06:21:31.265Z,258
2019-04-20T06:22:31.424Z,292
2019-04-20T06:23:34.583Z,365
2019-04-20T06:24:43.773Z,495
2019-04-20T06:25:55.886Z,568
2019-04-20T06:26:44.204Z,613
2019-04-20T06:27:34.197Z,663
2019-04-20T06:28:30.170Z,691
2019-04-20T06:29:39.556Z,669
2019-04-20T06:30:31.978Z,618
2019-04-20T06:31:35.964Z,646
2019-04-20T06:32:39.217Z,691
2019-04-20T06:33:53.606Z,669
2019-04-20T06:34:55.487Z,652
2019-04-20T06:36:01.277Z,663
2019-04-20T06:37:55.104Z,658
2019-04-20T06:38:56.249Z,669
2019-04-20T06:40:59.451Z,686
2019-04-20T06:42:58.842Z,725
2019-04-20T06:44:01.418Z,736
2019-04-20T06:44:57.345Z,787
2019-04-20T06:46:05.700Z,804
2019-04-20T06:47:16.378Z,781
2019-04-20T06:48:06.273Z,765
2019-04-20T06:49:10.849Z,770
2019-04-20T06:50:08.634Z,793
2019-04-20T06:50:58.148Z,770
2019-04-20T06:52:17.175Z,753
2019-04-20T06:53:20.511Z,765
2019-04-20T06:53:59.722Z,798
2019-04-20T06:55:08.254Z,883
2019-04-20T06:56:21.719Z,939
2019-04-20T06:57:11.508Z,900
2019-04-20T06:58:31.868Z,922
2019-04-20T06:59:21.591Z,888
2019-04-20T07:01:21.536Z,826
2019-04-20T07:02:21.864Z,826
2019-04-20T07:03:37.657Z,832
2019-04-20T07:04:38.841Z,815
2019-04-20T07:06:43.956Z,815
2019-04-20T07:07:33.966Z,815
2019-04-20T07:08:49.151Z,843
2019-04-20T07:09:39.884Z,894
2019-04-20T07:10:35.363Z,888
2019-04-20T07:11:37.395Z,973
2019-04-20T07:12:33.081Z,1018
2019-04-20T07:13:27.972Z,916
2019-04-20T07:14:28.843Z,911
2019-04-20T07:15:33.722Z,961
2019-04-20T07:16:40.854Z,995
2019-04-20T07:17:48.443Z,956
2019-04-20T07:18:42.507Z,939
2019-04-20T07:20:48.551Z,973
2019-04-20T07:22:07.532Z,950
2019-04-20T07:23:09.767Z,939
2019-04-20T07:23:54.328Z,916
2019-04-20T07:24:59.138Z,905
2019-04-20T07:25:58.590Z,922
2019-04-20T07:26:55.510Z,961
2019-04-20T07:27:53.806Z,1119
2019-04-20T07:29:00.472Z,1198
2019-04-20T07:29:58.932Z,1158
2019-04-20T07:30:55.266Z,1141
2019-04-20T07:31:53.655Z,1096
2019-04-20T07:34:40.874Z,1125
2019-04-20T07:35:42.506Z,1046
2019-04-20T07:37:28.227Z,995
2019-04-20T07:39:44.489Z,995
2019-04-20T07:40:39.650Z,1068
2019-04-20T07:42:16.822Z,1293
2019-04-20T07:43:09.263Z,1186
2019-04-20T07:44:51.822Z,1226
2019-04-20T07:45:46.577Z,1282
2019-04-20T07:47:01.577Z,1192
2019-04-20T07:47:55.248Z,1170
2019-04-20T07:48:54.390Z,1248
2019-04-20T07:49:53.820Z,1310
2019-04-20T07:50:46.270Z,1220
2019-04-20T07:51:39.093Z,1254
2019-04-20T07:52:48.817Z,1231
2019-04-20T07:54:07.669Z,1209
2019-04-20T07:55:17.300Z,1186
2019-04-20T07:56:19.122Z,1170
2019-04-20T07:57:04.097Z,1226
2019-04-20T07:57:58.986Z,1344
2019-04-20T07:58:52.692Z,1338
2019-04-20T08:00:04.614Z,1231
2019-04-20T08:01:17.335Z,1248
2019-04-20T08:02:17.565Z,1395
2019-04-20T08:03:18.422Z,1608
2019-04-20T08:04:13.210Z,1434
2019-04-20T08:05:08.321Z,1333
2019-04-20T08:06:04.599Z,1215
2019-04-20T08:07:02.094Z,1186
2019-04-20T08:08:17.162Z,1231
2019-04-20T08:09:16.102Z,1254
2019-04-20T08:10:05.641Z,1434
2019-04-20T08:11:13.803Z,1411
2019-04-20T08:12:29.323Z,1530
2019-04-20T08:13:32.977Z,1428
2019-04-20T08:14:31.865Z,1473
2019-04-20T08:16:42.399Z,1333
2019-04-20T08:17:37.410Z,1248
2019-04-20T08:19:28.634Z,1468
2019-04-20T08:20:31.274Z,1513
2019-04-20T08:21:35.098Z,1451
2019-04-20T08:22:42.112Z,1665
2019-04-20T08:23:38.657Z,1400
2019-04-20T08:24:37.190Z,1186
2019-04-20T08:25:32.796Z,1164
2019-04-20T08:26:30.446Z,1170
2019-04-20T08:27:25.616Z,1164
2019-04-20T08:28:38.470Z,1170
2019-04-20T08:29:37.970Z,1181
2019-04-20T08:30:41.276Z,1395
2019-04-20T08:31:35.856Z,1625
2019-04-20T08:32:49.157Z,1490
2019-04-20T08:34:01.825Z,1479
2019-04-20T08:34:53.724Z,1417
2019-04-20T08:36:01.259Z,1321
2019-04-20T08:36:56.611Z,1417
2019-04-20T08:38:14.484Z,1276
2019-04-20T08:40:57.416Z,1203
2019-04-20T08:42:06.376Z,1282
2019-04-20T08:43:20.819Z,1434
2019-04-20T08:44:30.950Z,1366
2019-04-20T08:45:08.137Z,1428
2019-04-20T08:46:13.559Z,1580
2019-04-20T08:47:20.593Z,1710
2019-04-20T08:48:18.954Z,1636
2019-04-20T08:49:19.386Z,1333
2019-04-20T08:50:19.869Z,1192
2019-04-20T08:51:12.190Z,1181
2019-04-20T08:52:41.385Z,1209
2019-04-20T08:54:16.508Z,1524
2019-04-20T08:55:19.721Z,1659
2019-04-20T08:56:18.544Z,1681
2019-04-20T08:57:06.919Z,1541
2019-04-20T08:58:07.502Z,1597
2019-04-20T08:59:09.522Z,2120
2019-04-20T09:00:11.138Z,2188
2019-04-20T09:01:18.499Z,1642
2019-04-20T09:02:15.774Z,1569
2019-04-20T09:03:24.320Z,1918
2019-04-20T09:04:20.701Z,2283
2019-04-20T09:05:32.927Z,2289
2019-04-20T09:06:32.350Z,1985
2019-04-20T09:07:23.485Z,2019
2019-04-20T09:08:26.301Z,2036
2019-04-20T09:09:49.106Z,1974
2019-04-20T09:10:43.866Z,1951
2019-04-20T09:11:48.195Z,2143
2019-04-20T09:12:40.871Z,2289
2019-04-20T09:13:39.099Z,2345
2019-04-20T09:14:30.240Z,1963
2019-04-20T09:15:31.980Z,1906
2019-04-20T09:16:40.897Z,2491
2019-04-20T09:17:41.121Z,2520
2019-04-20T09:18:43.268Z,2086
2019-04-20T09:19:49.127Z,2289
2019-04-20T09:20:47.567Z,2756
2019-04-20T09:21:48.293Z,2632
2019-04-20T09:22:49.295Z,2362
2019-04-20T09:23:57.922Z,2334
2019-04-20T09:25:07.696Z,2430
2019-04-20T09:27:01.121Z,2643
2019-04-20T09:27:52.177Z,2581
2019-04-20T09:28:58.994Z,2694
2019-04-20T09:30:03.352Z,2964
2019-04-20T09:31:09.210Z,3043
2019-04-20T09:32:09.105Z,3015
2019-04-20T09:33:14.598Z,2998
2019-04-20T09:34:11.721Z,2953
2019-04-20T09:35:17.653Z,2947
2019-04-20T09:36:14.094Z,2998
2019-04-20T09:37:22.044Z,3015
2019-04-20T09:38:15.130Z,2925
2019-04-20T09:39:11.309Z,2863
2019-04-20T09:40:21.629Z,2716
2019-04-20T09:41:26.479Z,2565
2019-04-20T09:42:05.972Z,2761
2019-04-20T09:43:08.672Z,2835
2019-04-20T09:44:08.878Z,3048
2019-04-20T09:45:21.310Z,3133
2019-04-20T09:46:11.832Z,3099
2019-04-20T09:47:13.982Z,3003
2019-04-20T09:48:18.340Z,2998
2019-04-20T09:49:23.856Z,2953
2019-04-20T09:50:33.406Z,3116
2019-04-20T09:51:37.673Z,3060
2019-04-20T09:52:33.438Z,2941
2019-04-20T09:53:33.556Z,3093
2019-04-20T09:54:42.936Z,3009
2019-04-20T09:55:33.547Z,2970
2019-04-20T09:56:41.912Z,3037
2019-04-20T09:57:44.020Z,3043
2019-04-20T09:58:52.112Z,2986
2019-04-20T09:59:49.976Z,2913
2019-04-20T10:00:46.934Z,2975
2019-04-20T10:01:40.193Z,2925
2019-04-20T10:02:36.103Z,2947
2019-04-20T10:03:34.657Z,2913
2019-04-20T10:04:36.031Z,2964
2019-04-20T10:05:37.863Z,3054
2019-04-20T10:06:39.386Z,2970
2019-04-20T10:07:40.962Z,2947
2019-04-20T10:08:50.674Z,2930
2019-04-20T10:09:44.931Z,2970
2019-04-20T10:10:45.591Z,2947
2019-04-20T10:11:47.037Z,3054
2019-04-20T10:12:47.925Z,3099
2019-04-20T10:13:48.206Z,3020
2019-04-20T10:14:50.865Z,3127
2019-04-20T10:15:50.891Z,3009
2019-04-20T10:16:52.262Z,2925
2019-04-20T10:17:53.936Z,2930
2019-04-20T10:18:55.315Z,2970
2019-04-20T10:19:57.658Z,2975
2019-04-20T10:20:57.946Z,2998
2019-04-20T10:22:00.259Z,3026
2019-04-20T10:23:00.554Z,3031
2019-04-20T10:24:02.850Z,3003
2019-04-20T10:25:04.468Z,2846
2019-04-20T10:26:04.699Z,2598
2019-04-20T10:27:06.321Z,2953
2019-04-20T10:28:07.625Z,2964
2019-04-20T10:29:09.830Z,3003
2019-04-20T10:30:10.430Z,3088
2019-04-20T10:31:12.600Z,3105
2019-04-20T10:32:14.518Z,3020
2019-04-20T10:33:13.867Z,2970
2019-04-20T10:34:15.806Z,2919
2019-04-20T10:35:18.609Z,2992
2019-04-20T10:36:17.952Z,3071
2019-04-20T10:37:19.770Z,3133
2019-04-20T10:38:21.404Z,3206
2019-04-20T10:39:22.518Z,2998
2019-04-20T10:40:40.568Z,2846
2019-04-20T10:41:35.995Z,2694
2019-04-20T10:42:26.170Z,2863
2019-04-20T10:43:28.148Z,3076
2019-04-20T10:44:29.317Z,2998
2019-04-20T10:45:30.829Z,2936
2019-04-20T10:46:31.491Z,2986
2019-04-20T10:47:32.865Z,3020
2019-04-20T10:48:40.271Z,3054
2019-04-20T10:49:35.604Z,3054
2019-04-20T10:50:36.977Z,2947
2019-04-20T10:51:39.769Z,2936
2019-04-20T10:52:39.703Z,2823
2019-04-20T10:53:42.279Z,2818
2019-04-20T10:54:42.701Z,2874
2019-04-20T10:55:45.164Z,2851
2019-04-20T10:56:45.741Z,3082
2019-04-20T10:57:46.504Z,3150
2019-04-20T10:58:47.881Z,3003
2019-04-20T10:59:49.807Z,2756
2019-04-20T11:00:51.838Z,2542
2019-04-20T11:01:51.977Z,2503
2019-04-20T11:02:53.359Z,2514
2019-04-20T11:03:54.742Z,2565
2019-04-20T11:04:57.007Z,2683
2019-04-20T11:05:58.429Z,2649
2019-04-20T11:07:00.714Z,2598
2019-04-20T11:08:02.007Z,2576
2019-04-20T11:09:02.543Z,2593
2019-04-20T11:10:14.281Z,2638
2019-04-20T11:11:12.963Z,2643
2019-04-20T11:12:06.376Z,2688
2019-04-20T11:13:07.555Z,2683
2019-04-20T11:14:19.052Z,2643
2019-04-20T11:15:10.376Z,2581
2019-04-20T11:16:12.515Z,2463
2019-04-20T11:17:14.141Z,2334
2019-04-20T11:18:15.499Z,2345
2019-04-20T11:19:15.756Z,2446
2019-04-20T11:20:17.232Z,2621
2019-04-20T11:21:19.639Z,2598
2019-04-20T11:22:20.050Z,2677
2019-04-20T11:23:22.372Z,2700
2019-04-20T11:24:22.512Z,2660
2019-04-20T11:25:24.272Z,2610
2019-04-20T11:26:26.360Z,2638
2019-04-20T11:27:27.958Z,2598
2019-04-20T11:28:28.202Z,2576
2019-04-20T11:29:29.315Z,2576
2019-04-20T11:30:32.085Z,2700
2019-04-20T11:31:37.387Z,2666
2019-04-20T11:32:33.859Z,2581
2019-04-20T11:33:34.704Z,2576
2019-04-20T11:34:39.001Z,2756
2019-04-20T11:35:39.533Z,2581
2019-04-20T11:36:39.216Z,2356
2019-04-20T11:37:40.143Z,2368
2019-04-20T11:38:42.747Z,2520
2019-04-20T11:39:43.133Z,2565
2019-04-20T11:40:44.886Z,2469
2019-04-20T11:41:45.744Z,2458
2019-04-20T11:42:47.839Z,2638
2019-04-20T11:43:49.435Z,2750
2019-04-20T11:44:50.764Z,2806
2019-04-20T11:45:51.118Z,2716
2019-04-20T11:46:52.539Z,2604
2019-04-20T11:47:53.821Z,2531
2019-04-20T11:48:55.331Z,2559
2019-04-20T11:49:57.612Z,2469
2019-04-20T11:50:57.935Z,2373
2019-04-20T11:51:59.479Z,2435
2019-04-20T11:53:01.435Z,2503
2019-04-20T11:54:01.807Z,2475
2019-04-20T11:55:04.398Z,2373
2019-04-20T11:56:06.675Z,2508
2019-04-20T11:57:07.038Z,2700
2019-04-20T11:58:07.987Z,2716
2019-04-20T11:59:09.433Z,2694
2019-04-20T12:00:11.007Z,2902
2019-04-20T12:01:14.191Z,3290
2019-04-20T12:02:20.115Z,3290
2019-04-20T12:03:21.819Z,3285
2019-04-20T12:04:29.448Z,3256
2019-04-20T12:05:26.245Z,3166
2019-04-20T12:06:18.929Z,3301
2019-04-20T12:07:19.371Z,3386
2019-04-20T12:08:20.824Z,3189
2019-04-20T12:09:22.146Z,3060
2019-04-20T12:10:25.615Z,2835
2019-04-20T12:11:34.795Z,2705
2019-04-20T12:12:34.978Z,2593
2019-04-20T12:13:28.872Z,2475
2019-04-20T12:14:28.920Z,2345
2019-04-20T12:15:32.183Z,2278
2019-04-20T12:16:31.948Z,2154
2019-04-20T12:17:33.493Z,2092
2019-04-20T12:18:35.755Z,1901
2019-04-20T12:19:36.298Z,1755
2019-04-20T12:20:37.074Z,1670
2019-04-20T12:21:39.063Z,1653
2019-04-20T12:22:40.020Z,1625
2019-04-20T12:23:42.328Z,1597
2019-04-20T12:24:42.513Z,1586
2019-04-20T12:25:44.621Z,1563
2019-04-20T12:26:45.233Z,1558
2019-04-20T12:27:48.647Z,1530
2019-04-20T12:28:47.978Z,1513
2019-04-20T12:29:49.853Z,1501
2019-04-20T12:30:51.518Z,1479
2019-04-20T12:31:55.407Z,1473
2019-04-20T12:32:57.626Z,1456
2019-04-20T12:33:54.848Z,1451
2019-04-20T12:34:56.140Z,1434
2019-04-20T12:35:58.280Z,1423
2019-04-20T12:36:58.826Z,1411
2019-04-20T12:38:00.972Z,1423
2019-04-20T12:39:01.561Z,1428
2019-04-20T12:40:03.182Z,1406
2019-04-20T12:41:04.870Z,1400
2019-04-20T12:42:08.146Z,1378
2019-04-20T12:43:06.964Z,1366
2019-04-20T12:44:08.358Z,1361
2019-04-20T12:45:09.728Z,1355
2019-04-20T12:46:13.615Z,1338
2019-04-20T12:47:12.467Z,1333
2019-04-20T12:48:13.859Z,1316
2019-04-20T12:49:15.843Z,1310
2019-04-20T12:50:17.365Z,1299
2019-04-20T12:51:17.953Z,1282
2019-04-20T12:52:20.647Z,1276
2019-04-20T12:53:20.686Z,1260
2019-04-20T12:54:22.774Z,1243
2019-04-20T12:55:23.402Z,1231
2019-04-20T12:56:24.793Z,1203
2019-04-20T12:57:26.801Z,1186
2019-04-20T12:58:28.328Z,1181
2019-04-20T12:59:29.676Z,1153
2019-04-20T13:00:30.228Z,1141
2019-04-20T13:01:31.637Z,1130
2019-04-20T13:02:33.473Z,1119
2019-04-20T13:03:35.223Z,1102
2019-04-20T13:04:35.846Z,1080
2019-04-20T13:05:38.005Z,1068
2019-04-20T13:06:39.164Z,1057
2019-04-20T13:07:44.106Z,1080
2019-04-20T13:08:45.158Z,1113
2019-04-20T13:09:42.615Z,1130
2019-04-20T13:10:44.474Z,1153
2019-04-20T13:11:52.913Z,1164
2019-04-20T13:12:46.728Z,1164
2019-04-20T13:13:48.288Z,1164
2019-04-20T13:14:50.698Z,1181
2019-04-20T13:15:52.066Z,1198
2019-04-20T13:16:53.192Z,1198
2019-04-20T13:17:54.316Z,1198
2019-04-20T13:18:55.292Z,1209
2019-04-20T13:19:57.488Z,1215
2019-04-20T13:20:58.798Z,1226
2019-04-20T13:21:59.036Z,1226
2019-04-20T13:23:02.600Z,1237
2019-04-20T13:24:02.903Z,1248
2019-04-20T13:25:03.195Z,1254
2019-04-20T13:26:06.414Z,1288
2019-04-20T13:27:06.791Z,1344
2019-04-20T13:28:07.316Z,1366
2019-04-20T13:29:08.752Z,1378
2019-04-20T13:30:09.924Z,1406
2019-04-20T13:31:11.635Z,1434
2019-04-20T13:32:13.839Z,1580
2019-04-20T13:33:14.211Z,1788
2019-04-20T13:34:56.194Z,1974
2019-04-20T13:35:56.536Z,2205
2019-04-20T13:37:28.925Z,2053
2019-04-20T13:38:30.301Z,1923
2019-04-20T13:39:32.998Z,1980
2019-04-20T13:40:33.444Z,1845
2019-04-20T13:41:35.714Z,1743
2019-04-20T13:42:36.473Z,1918
2019-04-20T13:43:37.653Z,1935
2019-04-20T13:44:39.049Z,1805
2019-04-20T13:45:39.727Z,1783
2019-04-20T13:46:41.103Z,1693
2019-04-20T13:47:43.199Z,1563
2019-04-20T13:48:44.721Z,1653
2019-04-20T13:49:45.255Z,1890
2019-04-20T13:50:46.505Z,1935
2019-04-20T13:51:48.649Z,1620
2019-04-20T13:52:49.235Z,1501
2019-04-20T13:53:51.022Z,1462
2019-04-20T13:54:51.957Z,1535
2019-04-20T13:55:54.053Z,1586
2019-04-20T13:56:55.411Z,1507
2019-04-20T13:57:56.015Z,1530
2019-04-20T13:58:58.084Z,1524
2019-04-20T13:59:59.843Z,1563
2019-04-20T14:01:00.962Z,1631
2019-04-20T14:02:02.543Z,1591
2019-04-20T14:03:02.866Z,1546
2019-04-20T14:04:05.240Z,1507
2019-04-20T14:05:06.791Z,1395
2019-04-20T14:06:06.936Z,1468
2019-04-20T14:07:09.345Z,1653
2019-04-20T14:08:09.639Z,1597
2019-04-20T14:09:11.731Z,1445
2019-04-20T14:10:13.374Z,1473
2019-04-20T14:11:13.515Z,1428
2019-04-20T14:12:23.243Z,1473
2019-04-20T14:13:18.699Z,1507
2019-04-20T14:14:17.581Z,1580
2019-04-20T14:15:19.405Z,1642
2019-04-20T14:16:20.956Z,1625
2019-04-20T14:17:21.642Z,1603
2019-04-20T14:18:23.015Z,1648
2019-04-20T14:19:25.125Z,1653
2019-04-20T14:20:27.043Z,1597
2019-04-20T14:21:27.887Z,1524
2019-04-20T14:22:29.190Z,1687
2019-04-20T14:23:30.830Z,1805
2019-04-20T14:24:31.149Z,1698
2019-04-20T14:25:33.268Z,1659
2019-04-20T14:26:36.078Z,1698
2019-04-20T14:27:35.206Z,1575
2019-04-20T14:28:36.760Z,1462
2019-04-20T14:29:39.001Z,1704
2019-04-20T14:30:40.098Z,1951
2019-04-20T14:31:41.835Z,1878
2019-04-20T14:32:42.944Z,1845
2019-04-20T14:33:44.543Z,1726
2019-04-20T14:34:44.804Z,1693
2019-04-20T14:35:47.029Z,1856
2019-04-20T14:36:48.713Z,1906